This is the latest recevied weather packets stored in our database for station/object K4OAM-13. If no packets are shown the sender has not sent any weather packets the latest 10 day(s).
| Time | Temp. | Humidity | Pressure | Rain* | Wind** | Luminosity | Snow |
|---|---|---|---|---|---|---|---|
| 1787434138 | 7.78° C | 62% | 1021.6 hPa | - | - | - | - |
| 1787433538 | 7.78° C | 62% | 1021.5 hPa | - | - | - | - |
| 1787432938 | 8.33° C | 62% | 1021.3 hPa | - | - | - | - |
| 1787432337 | 8.33° C | 61% | 1021 hPa | - | - | - | - |
| 1787431738 | 8.33° C | 61% | 1020.9 hPa | - | - | - | - |
| 1787431138 | 8.89° C | 62% | 1020.9 hPa | - | - | - | - |
| 1787430538 | 8.33° C | 60% | 1021 hPa | - | - | - | - |
| 1787429938 | 8.89° C | 60% | 1020.8 hPa | - | - | - | - |
| 1787429337 | 8.89° C | 61% | 1020.6 hPa | - | - | - | - |
| 1787428738 | 9.44° C | 62% | 1020.5 hPa | - | - | - | - |
| 1787428137 | 9.44° C | 62% | 1020.5 hPa | - | - | - | - |
| 1787427537 | 9.44° C | 62% | 1020.5 hPa | - | - | - | - |
| 1787426937 | 8.89° C | 63% | 1020.5 hPa | - | - | - | - |
| 1787426337 | 8.89° C | 61% | 1020.5 hPa | - | - | - | - |
| 1787425738 | 8.89° C | 61% | 1020.5 hPa | - | - | - | - |
| 1787425138 | 9.44° C | 63% | 1020.3 hPa | - | - | - | - |
| 1787424537 | 8.89° C | 65% | 1020.5 hPa | - | - | - | - |
| 1787423937 | 7.78° C | 66% | 1020.9 hPa | - | - | - | - |
| 1787423337 | 7.78° C | 67% | 1021.1 hPa | - | - | - | - |
| 1787422738 | 7.78° C | 68% | 1021.2 hPa | - | - | - | - |
| 1787422138 | 7.78° C | 68% | 1021.3 hPa | - | - | - | - |
| 1787421537 | 7.78° C | 67% | 1021.3 hPa | - | - | - | - |
| 1787420937 | 7.78° C | 67% | 1021.5 hPa | - | - | - | - |
| 1787420337 | 7.78° C | 68% | 1021.7 hPa | - | - | - | - |
| 1787419737 | 7.22° C | 71% | 1022.2 hPa | - | - | - | - |
* Rain since midnight (hover to see other rain measurements)
** Current wind speed in m/s (hover to see current wind gust speed)